createdAt,value
2016-08-16T00:00:10.667Z,12.62
2016-08-16T00:01:10.654Z,12.62
2016-08-16T00:02:10.652Z,12.58
2016-08-16T00:03:10.636Z,12.63
2016-08-16T00:04:10.644Z,12.53
2016-08-16T00:05:10.662Z,12.55
2016-08-16T00:06:10.627Z,12.37
2016-08-16T00:07:10.637Z,12.44
2016-08-16T00:08:10.610Z,12.38
2016-08-16T00:09:10.619Z,12.28
2016-08-16T00:10:10.604Z,12.31
2016-08-16T00:11:10.584Z,12.33
2016-08-16T00:12:10.592Z,12.37
2016-08-16T00:13:10.626Z,12.34
2016-08-16T00:14:11.308Z,12.23
2016-08-16T00:15:11.399Z,12.26
2016-08-16T00:16:10.572Z,12.2
2016-08-16T00:17:10.575Z,12.16
2016-08-16T00:18:10.585Z,12.16
2016-08-16T00:19:10.549Z,12.16
2016-08-16T00:20:10.552Z,12.15
2016-08-16T00:21:11.327Z,12.15
2016-08-16T00:22:10.553Z,12.19
2016-08-16T00:23:10.556Z,12.19
2016-08-16T00:24:10.553Z,12.2
2016-08-16T00:25:10.540Z,12.19
2016-08-16T00:26:10.538Z,12.11
2016-08-16T00:27:10.500Z,12.11
2016-08-16T00:28:10.497Z,12.16
2016-08-16T00:29:10.513Z,12.03
2016-08-16T00:30:10.518Z,12
2016-08-16T00:31:10.476Z,11.95
2016-08-16T00:32:10.491Z,12
2016-08-16T00:33:10.470Z,11.91
2016-08-16T00:34:11.320Z,11.79
2016-08-16T00:35:10.451Z,11.78
2016-08-16T00:36:10.469Z,11.81
2016-08-16T00:37:10.557Z,11.78
2016-08-16T00:38:10.472Z,11.67
2016-08-16T00:39:10.433Z,11.64
2016-08-16T00:40:10.435Z,11.59
2016-08-16T00:41:10.446Z,11.59
2016-08-16T00:42:11.287Z,11.57
2016-08-16T00:43:10.426Z,11.57
2016-08-16T00:44:10.411Z,11.42
2016-08-16T00:45:10.420Z,11.48
2016-08-16T00:46:10.384Z,11.46
2016-08-16T00:47:10.385Z,11.39
2016-08-16T00:48:10.403Z,11.28
2016-08-16T00:49:10.530Z,11.3
2016-08-16T00:50:10.377Z,11.38
2016-08-16T00:51:10.506Z,11.21
2016-08-16T00:52:10.360Z,11.24
2016-08-16T00:53:10.343Z,11.23
2016-08-16T00:54:10.345Z,11.2
2016-08-16T00:55:10.356Z,11.18
2016-08-16T00:56:10.338Z,11.12
2016-08-16T00:57:10.423Z,11.12
2016-08-16T00:58:10.350Z,11.06
2016-08-16T00:59:10.327Z,11.06
2016-08-16T01:00:11.275Z,11.05
2016-08-16T01:01:10.547Z,11.06
2016-08-16T01:02:10.292Z,11.05
2016-08-16T01:03:10.314Z,11
2016-08-16T01:04:10.277Z,10.97
2016-08-16T01:05:10.305Z,10.87
2016-08-16T01:06:10.703Z,10.8
2016-08-16T01:07:10.501Z,10.94
2016-08-16T01:08:10.245Z,10.9
2016-08-16T01:09:10.259Z,10.83
2016-08-16T01:10:10.241Z,10.73
2016-08-16T01:11:10.241Z,10.85
2016-08-16T01:12:10.358Z,10.84
2016-08-16T01:13:10.346Z,10.84
2016-08-16T01:14:10.221Z,10.8
2016-08-16T01:15:11.248Z,10.76
2016-08-16T01:16:10.256Z,10.8
2016-08-16T01:17:10.186Z,10.79
2016-08-16T01:18:10.214Z,10.79
2016-08-16T01:19:10.366Z,10.75
2016-08-16T01:20:10.184Z,10.83
2016-08-16T01:21:10.186Z,10.72
2016-08-16T01:22:10.165Z,10.8
2016-08-16T01:23:10.168Z,10.84
2016-08-16T01:24:10.218Z,10.9
2016-08-16T01:25:10.290Z,10.91
2016-08-16T01:26:10.130Z,10.94
2016-08-16T01:27:10.136Z,11.03
2016-08-16T01:28:10.122Z,11.02
2016-08-16T01:29:10.142Z,11.12
2016-08-16T01:30:10.125Z,11.16
2016-08-16T01:31:10.132Z,11.1
2016-08-16T01:32:10.095Z,11.21
2016-08-16T01:33:10.087Z,11.18
2016-08-16T01:34:10.088Z,11.21
2016-08-16T01:35:11.284Z,11.16
2016-08-16T01:36:10.352Z,11.23
2016-08-16T01:37:10.079Z,11.24
2016-08-16T01:38:11.138Z,11.35
2016-08-16T01:39:10.080Z,11.26
2016-08-16T01:40:10.056Z,11.24
2016-08-16T01:41:10.020Z,11.3
2016-08-16T01:42:10.242Z,11.26
2016-08-16T01:43:10.043Z,11.27
2016-08-16T01:44:10.020Z,11.28
2016-08-16T01:45:10.008Z,11.31
2016-08-16T01:46:10.002Z,11.24
2016-08-16T01:47:09.995Z,11.24
2016-08-16T01:48:09.991Z,11.33
2016-08-16T01:49:10.055Z,11.28
2016-08-16T01:50:09.983Z,11.21
2016-08-16T01:51:10.679Z,11.23
2016-08-16T01:52:09.956Z,11.33
2016-08-16T01:53:09.976Z,11.3
2016-08-16T01:54:10.030Z,11.24
2016-08-16T01:55:09.995Z,11.21
2016-08-16T01:56:09.943Z,11.13
2016-08-16T01:57:10.154Z,11.1
2016-08-16T01:58:09.930Z,11.08
2016-08-16T01:59:09.902Z,11.08
2016-08-16T02:00:09.952Z,11.09
2016-08-16T02:01:10.125Z,11
2016-08-16T02:02:09.884Z,11.05
2016-08-16T02:03:10.589Z,11.02
2016-08-16T02:04:09.871Z,11.05
2016-08-16T02:05:09.980Z,11.08
2016-08-16T02:06:09.912Z,11
2016-08-16T02:07:10.067Z,10.95
2016-08-16T02:08:10.861Z,10.94
2016-08-16T02:09:10.040Z,10.88
2016-08-16T02:10:09.842Z,10.85
2016-08-16T02:11:09.854Z,10.73
2016-08-16T02:12:09.827Z,10.76
2016-08-16T02:13:09.815Z,10.75
2016-08-16T02:14:09.858Z,10.63
2016-08-16T02:15:09.977Z,10.66
2016-08-16T02:16:09.858Z,10.69
2016-08-16T02:17:09.898Z,10.69
2016-08-16T02:18:09.798Z,10.69
2016-08-16T02:19:09.789Z,10.65
2016-08-16T02:20:09.771Z,10.61
2016-08-16T02:21:10.045Z,10.65
2016-08-16T02:22:09.771Z,10.65
2016-08-16T02:23:09.747Z,10.72
2016-08-16T02:24:09.747Z,10.84
2016-08-16T02:25:09.756Z,10.8
2016-08-16T02:26:09.726Z,10.91
2016-08-16T02:27:10.002Z,10.98
2016-08-16T02:28:09.945Z,11.02
2016-08-16T02:29:09.695Z,10.98
2016-08-16T02:30:09.881Z,11.18
2016-08-16T02:31:09.686Z,11.1
2016-08-16T02:32:09.693Z,11.13
2016-08-16T02:33:10.546Z,11.35
2016-08-16T02:34:09.881Z,11.26
2016-08-16T02:35:09.677Z,11.28
2016-08-16T02:36:09.853Z,11.48
2016-08-16T02:37:09.657Z,11.46
2016-08-16T02:38:09.699Z,11.52
2016-08-16T02:39:09.878Z,11.48
2016-08-16T02:40:10.671Z,11.51
2016-08-16T02:41:09.627Z,11.57
2016-08-16T02:42:09.642Z,11.57
2016-08-16T02:43:10.346Z,11.64
2016-08-16T02:44:09.622Z,11.61
2016-08-16T02:45:09.602Z,11.59
2016-08-16T02:46:09.762Z,11.6
2016-08-16T02:47:09.597Z,11.64
2016-08-16T02:48:09.770Z,11.76
2016-08-16T02:49:09.900Z,11.68
2016-08-16T02:50:09.581Z,11.68
2016-08-16T02:51:09.562Z,11.68
2016-08-16T02:52:09.733Z,11.68
2016-08-16T02:53:09.598Z,11.73
2016-08-16T02:54:09.547Z,11.66
2016-08-16T02:55:09.552Z,11.73
2016-08-16T02:56:09.545Z,11.66
2016-08-16T02:57:09.510Z,11.61
2016-08-16T02:58:09.566Z,11.61
2016-08-16T02:59:09.761Z,11.59
2016-08-16T03:00:09.512Z,11.53
2016-08-16T03:01:09.492Z,11.57
2016-08-16T03:02:09.475Z,11.49
2016-08-16T03:03:09.487Z,11.39
2016-08-16T03:04:09.490Z,11.39
2016-08-16T03:05:09.629Z,11.41
2016-08-16T03:06:09.462Z,11.26
2016-08-16T03:07:09.506Z,11.26
2016-08-16T03:08:10.267Z,11.16
2016-08-16T03:09:09.434Z,11.13
2016-08-16T03:10:09.438Z,11.13
2016-08-16T03:11:09.664Z,11.05
2016-08-16T03:12:09.446Z,11.06
2016-08-16T03:13:09.436Z,11.18
2016-08-16T03:14:10.123Z,11.1
2016-08-16T03:15:09.390Z,11
2016-08-16T03:16:09.414Z,11.13
2016-08-16T03:17:09.458Z,11.03
2016-08-16T03:18:10.405Z,11.08
2016-08-16T03:19:09.391Z,11
2016-08-16T03:20:10.240Z,10.97
2016-08-16T03:21:09.561Z,10.98
2016-08-16T03:22:09.438Z,10.87
2016-08-16T03:23:09.341Z,10.88
2016-08-16T03:24:10.053Z,10.8
2016-08-16T03:25:09.537Z,10.7
2016-08-16T03:26:09.329Z,10.69
2016-08-16T03:27:09.411Z,10.73
2016-08-16T03:28:09.485Z,10.59
2016-08-16T03:29:09.315Z,10.59
2016-08-16T03:30:09.323Z,10.63
2016-08-16T03:31:09.477Z,10.63
2016-08-16T03:32:09.481Z,10.66
2016-08-16T03:33:10.082Z,10.69
2016-08-16T03:34:09.434Z,10.7
2016-08-16T03:35:09.336Z,10.66
2016-08-16T03:36:09.306Z,10.79
2016-08-16T03:37:09.257Z,10.83
2016-08-16T03:38:09.442Z,10.8
2016-08-16T03:39:09.270Z,10.84
2016-08-16T03:40:09.248Z,10.91
2016-08-16T03:41:09.300Z,10.88
2016-08-16T03:42:09.224Z,10.75
2016-08-16T03:43:09.208Z,10.76
2016-08-16T03:44:09.306Z,10.72
2016-08-16T03:45:09.476Z,10.83
2016-08-16T03:46:09.204Z,10.75
2016-08-16T03:47:09.202Z,10.76
2016-08-16T03:48:09.211Z,10.83
2016-08-16T03:49:09.177Z,10.72
2016-08-16T03:50:09.164Z,10.72
2016-08-16T03:51:09.263Z,10.63
2016-08-16T03:52:09.893Z,10.72
2016-08-16T03:53:09.163Z,10.65
2016-08-16T03:54:09.307Z,10.65
2016-08-16T03:55:09.137Z,10.69
2016-08-16T03:56:09.120Z,10.69
2016-08-16T03:57:09.197Z,10.67
2016-08-16T03:58:09.228Z,10.72
2016-08-16T03:59:09.144Z,10.65
2016-08-16T04:00:09.176Z,10.55
2016-08-16T04:01:09.106Z,10.57
2016-08-16T04:02:09.086Z,10.52
2016-08-16T04:03:09.099Z,10.44
2016-08-16T04:04:09.249Z,10.42
2016-08-16T04:05:09.128Z,10.41
2016-08-16T04:06:09.132Z,10.41
2016-08-16T04:07:09.135Z,10.46
2016-08-16T04:08:09.047Z,10.36
2016-08-16T04:09:09.049Z,10.33
2016-08-16T04:10:09.058Z,10.28
2016-08-16T04:11:09.068Z,10.29
2016-08-16T04:12:09.065Z,10.32
2016-08-16T04:13:09.069Z,10.28
2016-08-16T04:14:09.703Z,10.31
2016-08-16T04:15:09.092Z,10.31
2016-08-16T04:16:09.099Z,10.28
2016-08-16T04:17:09.039Z,10.17
2016-08-16T04:18:09.051Z,10.26
2016-08-16T04:19:09.054Z,10.18
2016-08-16T04:20:09.000Z,10.21
2016-08-16T04:21:09.034Z,10.31
2016-08-16T04:22:09.032Z,10.29
2016-08-16T04:23:09.046Z,10.31
2016-08-16T04:24:08.984Z,10.38
2016-08-16T04:25:09.014Z,10.36
2016-08-16T04:26:09.013Z,10.47
2016-08-16T04:27:09.021Z,10.51
2016-08-16T04:28:09.019Z,10.52
2016-08-16T04:29:09.030Z,10.69
2016-08-16T04:30:09.040Z,10.66
2016-08-16T04:31:09.055Z,10.75
2016-08-16T04:32:09.010Z,10.77
2016-08-16T04:33:08.960Z,10.91
2016-08-16T04:34:08.960Z,10.88
2016-08-16T04:35:08.965Z,10.9
2016-08-16T04:36:09.565Z,11.02
2016-08-16T04:37:09.082Z,11.05
2016-08-16T04:38:08.985Z,11.03
2016-08-16T04:39:08.998Z,11.16
2016-08-16T04:40:09.006Z,11.12
2016-08-16T04:41:09.014Z,11.15
2016-08-16T04:42:08.989Z,11.15
2016-08-16T04:43:08.892Z,11.1
2016-08-16T04:44:08.886Z,11.18
2016-08-16T04:45:08.944Z,11.23
2016-08-16T04:46:08.949Z,11.23
2016-08-16T04:47:09.019Z,11.23
2016-08-16T04:48:08.932Z,11.27
2016-08-16T04:49:08.971Z,11.3
2016-08-16T04:50:08.833Z,11.33
2016-08-16T04:51:08.844Z,11.26
2016-08-16T04:52:08.851Z,11.39
2016-08-16T04:53:08.861Z,11.41
2016-08-16T04:54:08.871Z,11.38
2016-08-16T04:55:08.869Z,11.52
2016-08-16T04:56:08.880Z,11.57
2016-08-16T04:57:08.782Z,11.52
2016-08-16T04:58:08.808Z,11.56
2016-08-16T04:59:08.792Z,11.63
2016-08-16T05:00:08.809Z,11.63
2016-08-16T05:01:08.813Z,11.71
2016-08-16T05:02:08.823Z,11.63
2016-08-16T05:03:08.833Z,11.66
2016-08-16T05:04:08.777Z,11.78
2016-08-16T05:05:08.842Z,11.85
2016-08-16T05:06:08.948Z,11.81
2016-08-16T05:07:08.688Z,11.84
2016-08-16T05:08:08.864Z,11.85
2016-08-16T05:09:08.815Z,11.82
2016-08-16T05:10:08.776Z,11.91
2016-08-16T05:11:08.787Z,11.88
2016-08-16T05:12:09.293Z,11.88
2016-08-16T05:13:08.802Z,11.84
2016-08-16T05:14:08.769Z,11.78
2016-08-16T05:15:08.644Z,11.88
2016-08-16T05:16:08.764Z,11.73
2016-08-16T05:17:09.284Z,11.79
2016-08-16T05:18:08.747Z,11.86
2016-08-16T05:19:08.602Z,11.89
2016-08-16T05:20:09.333Z,11.81
2016-08-16T05:21:08.757Z,11.81
2016-08-16T05:22:08.607Z,11.84
2016-08-16T05:23:08.746Z,11.78
2016-08-16T05:24:08.636Z,11.81
2016-08-16T05:25:08.727Z,11.88
2016-08-16T05:26:08.627Z,11.79
2016-08-16T05:27:08.599Z,11.82
2016-08-16T05:28:09.223Z,11.88
2016-08-16T05:29:08.573Z,11.84
2016-08-16T05:30:08.578Z,11.94
2016-08-16T05:31:08.573Z,11.94
2016-08-16T05:32:08.454Z,12.03
2016-08-16T05:33:08.568Z,12.15
2016-08-16T05:34:08.559Z,12.08
2016-08-16T05:35:08.582Z,12.11
2016-08-16T05:36:08.565Z,12.19
2016-08-16T05:37:08.566Z,12.26
2016-08-16T05:38:08.416Z,12.33
2016-08-16T05:39:08.446Z,12.28
2016-08-16T05:40:08.420Z,12.26
2016-08-16T05:41:08.424Z,12.38
2016-08-16T05:42:08.411Z,12.4
2016-08-16T05:43:08.407Z,12.43
2016-08-16T05:44:08.376Z,12.38
2016-08-16T05:45:08.405Z,12.33
2016-08-16T05:46:08.385Z,12.33
2016-08-16T05:47:08.389Z,12.33
2016-08-16T05:48:08.406Z,12.29
2016-08-16T05:49:08.353Z,12.33
2016-08-16T05:50:08.415Z,12.28
2016-08-16T05:51:08.348Z,12.28
2016-08-16T05:52:09.044Z,12.37
2016-08-16T05:53:08.361Z,12.25
2016-08-16T05:54:08.351Z,12.38
2016-08-16T05:55:08.339Z,12.44
2016-08-16T05:56:08.318Z,12.43
2016-08-16T05:57:08.306Z,12.4
2016-08-16T05:58:08.327Z,12.53
2016-08-16T05:59:09.052Z,12.63
2016-08-16T06:00:08.314Z,12.62
2016-08-16T06:01:08.277Z,12.59
2016-08-16T06:02:08.986Z,12.61
2016-08-16T06:03:08.298Z,12.62
2016-08-16T06:04:08.264Z,12.7
2016-08-16T06:05:08.292Z,12.77
2016-08-16T06:06:08.266Z,12.73
2016-08-16T06:07:08.249Z,12.73
2016-08-16T06:08:08.321Z,12.76
2016-08-16T06:09:08.259Z,12.78
2016-08-16T06:10:08.241Z,12.78
2016-08-16T06:11:08.240Z,12.84
2016-08-16T06:12:08.234Z,12.84
2016-08-16T06:13:08.237Z,12.94
2016-08-16T06:14:08.213Z,12.92
2016-08-16T06:15:08.222Z,13.1
2016-08-16T06:16:08.199Z,13.11
2016-08-16T06:17:08.235Z,13.2
2016-08-16T06:18:08.212Z,13.2
2016-08-16T06:19:08.192Z,13.36
2016-08-16T06:20:08.163Z,13.32
2016-08-16T06:21:08.171Z,13.48
2016-08-16T06:22:08.150Z,13.45
2016-08-16T06:23:08.948Z,13.54
2016-08-16T06:24:08.153Z,13.6
2016-08-16T06:25:08.161Z,13.63
2016-08-16T06:26:08.148Z,13.58
2016-08-16T06:27:08.144Z,13.68
2016-08-16T06:28:08.144Z,13.76
2016-08-16T06:29:08.133Z,13.75
2016-08-16T06:30:08.200Z,13.78
2016-08-16T06:31:08.134Z,13.83
2016-08-16T06:32:08.096Z,13.84
2016-08-16T06:33:08.108Z,13.91
2016-08-16T06:34:08.104Z,13.93
2016-08-16T06:35:08.101Z,13.97
2016-08-16T06:36:08.084Z,14.05
2016-08-16T06:37:08.110Z,14.09
2016-08-16T06:38:08.094Z,14.06
2016-08-16T06:39:08.088Z,14.12
2016-08-16T06:40:08.074Z,14.15
2016-08-16T06:41:08.096Z,14.16
2016-08-16T06:42:08.107Z,14.28
2016-08-16T06:43:08.046Z,14.26
2016-08-16T06:44:08.055Z,14.26
2016-08-16T06:45:08.054Z,14.34
2016-08-16T06:46:08.050Z,14.33
2016-08-16T06:47:08.049Z,14.31
2016-08-16T06:48:08.039Z,14.48
2016-08-16T06:49:08.067Z,14.45
2016-08-16T06:50:08.015Z,14.6
2016-08-16T06:51:08.020Z,14.59
2016-08-16T06:52:08.004Z,14.69
2016-08-16T06:53:08.010Z,14.83
2016-08-16T06:54:08.008Z,14.95
2016-08-16T06:55:08.035Z,15.16
2016-08-16T06:56:08.022Z,15.34
2016-08-16T06:57:08.001Z,15.34
2016-08-16T06:58:08.043Z,15.38
2016-08-16T06:59:08.063Z,15.53
2016-08-16T07:00:07.996Z,15.91
2016-08-16T07:01:07.993Z,16.32
2016-08-16T07:02:08.118Z,16.92
2016-08-16T07:03:07.993Z,17.39
2016-08-16T07:04:07.974Z,18.01
2016-08-16T07:05:07.992Z,18.5
2016-08-16T07:06:07.978Z,18.99
2016-08-16T07:07:08.863Z,19.49
2016-08-16T07:08:07.944Z,19.67
2016-08-16T07:09:08.879Z,20.02
2016-08-16T07:10:07.947Z,20.46
2016-08-16T07:11:07.989Z,20.88
2016-08-16T07:12:07.954Z,21.22
2016-08-16T07:13:07.947Z,21.23
2016-08-16T07:14:07.975Z,21.28
2016-08-16T07:15:07.919Z,21.45
2016-08-16T07:16:07.925Z,21.85
2016-08-16T07:17:07.920Z,21.93
2016-08-16T07:18:07.936Z,21.99
2016-08-16T07:19:08.702Z,22.05
2016-08-16T07:20:07.950Z,22.18
2016-08-16T07:21:07.939Z,22.41
2016-08-16T07:22:07.954Z,22.41
2016-08-16T07:23:07.911Z,22.45
2016-08-16T07:24:08.119Z,22.51
2016-08-16T07:25:07.894Z,22.46
2016-08-16T07:26:07.928Z,22.34
2016-08-16T07:27:07.946Z,22.31
2016-08-16T07:28:07.944Z,22.45
2016-08-16T07:29:07.896Z,22.42
2016-08-16T07:30:07.900Z,22.44
2016-08-16T07:31:07.930Z,22.64
2016-08-16T07:32:08.692Z,22.61
2016-08-16T07:33:07.893Z,22.54
2016-08-16T07:34:07.898Z,22.44
2016-08-16T07:35:07.912Z,22.36
2016-08-16T07:36:07.913Z,22.33
2016-08-16T07:37:07.922Z,22.16
2016-08-16T07:38:07.939Z,22.04
2016-08-16T07:39:07.896Z,21.94
2016-08-16T07:40:07.916Z,21.82
2016-08-16T07:41:07.889Z,21.61
2016-08-16T07:42:07.909Z,21.46
2016-08-16T07:43:07.912Z,21.22
2016-08-16T07:44:07.888Z,21.09
2016-08-16T07:45:07.886Z,20.82
2016-08-16T07:46:07.896Z,20.63
2016-08-16T07:47:07.887Z,20.54
2016-08-16T07:48:07.910Z,20.46
2016-08-16T07:49:07.909Z,20.44
2016-08-16T07:50:07.921Z,20.41
2016-08-16T07:51:07.910Z,20.25
2016-08-16T07:52:07.882Z,20.02
2016-08-16T07:53:07.889Z,19.98
2016-08-16T07:54:07.897Z,19.75
2016-08-16T07:55:08.808Z,19.53
2016-08-16T07:56:07.905Z,19.52
2016-08-16T07:57:07.988Z,19.37
2016-08-16T07:58:07.868Z,19.3
2016-08-16T07:59:07.875Z,19.32
2016-08-16T08:00:07.891Z,19.17
2016-08-16T08:01:07.899Z,19.02
2016-08-16T08:02:07.973Z,18.93
2016-08-16T08:03:07.889Z,18.89
2016-08-16T08:04:07.917Z,18.76
2016-08-16T08:05:07.896Z,18.72
2016-08-16T08:06:07.921Z,18.72
2016-08-16T08:07:07.909Z,18.72
2016-08-16T08:08:07.896Z,18.74
2016-08-16T08:09:07.882Z,18.69
2016-08-16T08:10:07.877Z,18.65
2016-08-16T08:11:07.887Z,18.6
2016-08-16T08:12:07.961Z,18.6
2016-08-16T08:13:07.880Z,18.71
2016-08-16T08:14:08.084Z,18.66
2016-08-16T08:15:07.873Z,18.74
2016-08-16T08:16:22.787Z,18.91
2016-08-16T08:17:07.963Z,18.86
2016-08-16T08:18:07.870Z,18.9
2016-08-16T08:19:07.865Z,18.81
2016-08-16T08:20:07.910Z,18.65
2016-08-16T08:21:07.936Z,18.63
2016-08-16T08:22:07.855Z,18.69
2016-08-16T08:23:07.865Z,18.53
2016-08-16T08:24:07.841Z,18.65
2016-08-16T08:25:07.852Z,18.63
2016-08-16T08:26:07.849Z,18.65
2016-08-16T08:27:07.887Z,18.57
2016-08-16T08:28:07.832Z,18.57
2016-08-16T08:29:07.836Z,18.56
2016-08-16T08:30:07.858Z,18.65
2016-08-16T08:31:07.827Z,18.75
2016-08-16T08:32:07.837Z,18.72
2016-08-16T08:33:07.813Z,18.76
2016-08-16T08:34:07.856Z,18.84
2016-08-16T08:35:07.821Z,18.78
2016-08-16T08:36:07.868Z,18.79
2016-08-16T08:37:07.885Z,18.86
2016-08-16T08:38:07.814Z,18.74
2016-08-16T08:39:07.828Z,18.89
2016-08-16T08:40:07.830Z,18.91
2016-08-16T08:41:07.835Z,18.91
2016-08-16T08:42:07.799Z,18.9
2016-08-16T08:43:07.791Z,18.91
2016-08-16T08:44:07.889Z,18.75
2016-08-16T08:45:07.801Z,18.75
2016-08-16T08:46:07.803Z,18.68
2016-08-16T08:47:07.791Z,18.54
2016-08-16T08:48:07.779Z,18.5
2016-08-16T08:49:07.787Z,18.63
2016-08-16T08:50:07.788Z,18.72
2016-08-16T08:51:08.640Z,18.68
2016-08-16T08:52:07.783Z,18.57
2016-08-16T08:53:07.777Z,18.74
2016-08-16T08:54:07.772Z,18.71
2016-08-16T08:55:07.787Z,18.76
2016-08-16T08:56:07.770Z,18.82
2016-08-16T08:57:07.786Z,18.82
2016-08-16T08:58:08.616Z,18.87
2016-08-16T08:59:07.765Z,18.87
2016-08-16T09:00:07.790Z,18.93
2016-08-16T09:01:07.777Z,18.9
2016-08-16T09:02:07.776Z,19.06
2016-08-16T09:03:07.783Z,19.17
2016-08-16T09:04:07.773Z,19.27
2016-08-16T09:05:07.788Z,19.43
2016-08-16T09:06:08.704Z,19.53
2016-08-16T09:07:07.775Z,19.55
2016-08-16T09:08:07.767Z,19.47
2016-08-16T09:09:07.757Z,19.43
2016-08-16T09:10:07.776Z,19.28
2016-08-16T09:11:07.743Z,19.3
2016-08-16T09:12:07.756Z,19.05
2016-08-16T09:13:07.730Z,19.02
2016-08-16T09:14:07.736Z,18.76
2016-08-16T09:15:07.747Z,18.69
2016-08-16T09:16:07.720Z,18.68
2016-08-16T09:17:07.736Z,18.69
2016-08-16T09:18:07.740Z,18.76
2016-08-16T09:19:07.755Z,18.91
2016-08-16T09:20:07.736Z,19.07
2016-08-16T09:21:07.752Z,19.15
2016-08-16T09:22:07.783Z,19.13
2016-08-16T09:23:07.723Z,19.16
2016-08-16T09:24:07.737Z,19.17
2016-08-16T09:25:07.732Z,19.17
2016-08-16T09:26:07.738Z,19.09
2016-08-16T09:27:07.712Z,19.06
2016-08-16T09:28:07.712Z,19.12
2016-08-16T09:29:07.713Z,19.24
2016-08-16T09:30:07.736Z,19.46
2016-08-16T09:31:07.716Z,19.53
2016-08-16T09:32:07.723Z,19.68
2016-08-16T09:33:07.702Z,19.67
2016-08-16T09:34:07.730Z,19.65
2016-08-16T09:35:07.726Z,19.55
2016-08-16T09:36:08.574Z,19.38
2016-08-16T09:37:07.697Z,19.24
2016-08-16T09:38:08.710Z,19.09
2016-08-16T09:39:07.698Z,18.94
2016-08-16T09:40:07.711Z,18.86
2016-08-16T09:41:07.722Z,18.74
2016-08-16T09:42:07.710Z,18.63
2016-08-16T09:43:07.692Z,18.61
2016-08-16T09:44:07.714Z,18.5
2016-08-16T09:45:07.688Z,18.51
2016-08-16T09:46:07.692Z,18.5
2016-08-16T09:47:07.706Z,18.54
2016-08-16T09:48:07.673Z,18.6
2016-08-16T09:49:08.726Z,18.6
2016-08-16T09:50:07.697Z,18.71
2016-08-16T09:51:07.682Z,18.76
2016-08-16T09:52:07.693Z,18.81
2016-08-16T09:53:07.671Z,18.71
2016-08-16T09:54:07.679Z,18.72
2016-08-16T09:55:07.680Z,18.81
2016-08-16T09:56:07.695Z,18.93
2016-08-16T09:57:07.673Z,19.2
2016-08-16T09:58:07.674Z,19.37
2016-08-16T09:59:07.684Z,19.49
2016-08-16T10:00:07.688Z,19.65
2016-08-16T10:01:07.673Z,19.67
2016-08-16T10:02:07.751Z,19.53
2016-08-16T10:03:07.668Z,19.46
2016-08-16T10:04:07.693Z,19.34
2016-08-16T10:05:07.694Z,19.31
2016-08-16T10:06:07.719Z,19.28
2016-08-16T10:07:08.501Z,19.16
2016-08-16T10:08:07.661Z,19.17
2016-08-16T10:09:07.659Z,19.17
2016-08-16T10:10:07.827Z,19.17
2016-08-16T10:11:07.664Z,19.3
2016-08-16T10:12:07.663Z,19.2
2016-08-16T10:13:07.662Z,19
2016-08-16T10:14:07.641Z,18.99
2016-08-16T10:15:07.642Z,18.97
2016-08-16T10:16:07.651Z,18.91
2016-08-16T10:17:08.668Z,18.87
2016-08-16T10:18:07.645Z,18.78
2016-08-16T10:19:07.658Z,18.61
2016-08-16T10:20:07.666Z,18.65
2016-08-16T10:21:07.646Z,18.54
2016-08-16T10:22:07.659Z,18.45
2016-08-16T10:23:07.631Z,18.45
2016-08-16T10:24:07.639Z,18.56
2016-08-16T10:25:07.645Z,18.68
2016-08-16T10:26:07.653Z,18.76
2016-08-16T10:27:07.625Z,18.87
2016-08-16T10:28:07.827Z,19.02
2016-08-16T10:29:07.617Z,19.24
2016-08-16T10:30:07.614Z,19.27
2016-08-16T10:31:07.612Z,19.45
2016-08-16T10:32:07.679Z,19.42
2016-08-16T10:33:07.636Z,19.52
2016-08-16T10:34:07.623Z,19.65
2016-08-16T10:35:07.629Z,19.82
2016-08-16T10:36:08.509Z,19.87
2016-08-16T10:37:07.612Z,19.95
2016-08-16T10:38:07.616Z,19.97
2016-08-16T10:39:07.617Z,19.98
2016-08-16T10:40:07.610Z,20.02
2016-08-16T10:41:07.760Z,20.05
2016-08-16T10:42:07.629Z,20.15
2016-08-16T10:43:07.597Z,20.1
2016-08-16T10:44:07.612Z,20.27
2016-08-16T10:45:07.603Z,20.3
2016-08-16T10:46:07.612Z,20.25
2016-08-16T10:47:07.625Z,20.25
2016-08-16T10:48:07.617Z,20.34
2016-08-16T10:49:07.606Z,20.48
2016-08-16T10:50:07.646Z,20.51
2016-08-16T10:51:07.623Z,20.58
2016-08-16T10:52:07.637Z,20.74
2016-08-16T10:53:07.613Z,20.83
2016-08-16T10:54:07.599Z,20.97
2016-08-16T10:55:07.648Z,21.19
2016-08-16T10:56:07.628Z,21.19
2016-08-16T10:57:07.605Z,21.38
2016-08-16T10:58:07.617Z,21.27
2016-08-16T10:59:07.579Z,21.27
2016-08-16T11:00:07.613Z,21.01
2016-08-16T11:01:07.599Z,20.74
2016-08-16T11:02:07.600Z,20.42
2016-08-16T11:03:07.598Z,20.29
2016-08-16T11:04:07.599Z,20.12
2016-08-16T11:05:07.587Z,20.05
2016-08-16T11:06:07.597Z,20.01
2016-08-16T11:07:07.613Z,19.92
2016-08-16T11:08:07.585Z,19.87
2016-08-16T11:09:07.580Z,19.79
2016-08-16T11:10:07.628Z,19.55
2016-08-16T11:11:07.599Z,19.61
2016-08-16T11:12:07.587Z,19.5
2016-08-16T11:13:07.576Z,19.64
2016-08-16T11:14:07.590Z,19.7
2016-08-16T11:15:07.585Z,19.8
2016-08-16T11:16:07.596Z,19.83
2016-08-16T11:17:07.568Z,19.97
2016-08-16T11:18:07.568Z,20.12
2016-08-16T11:19:07.628Z,20.04
2016-08-16T11:20:07.590Z,20.05
2016-08-16T11:21:07.595Z,20.19
2016-08-16T11:22:07.569Z,20.15
2016-08-16T11:23:07.554Z,20.18
2016-08-16T11:24:07.572Z,20.27
2016-08-16T11:25:07.589Z,20.23
2016-08-16T11:26:07.552Z,20.32
2016-08-16T11:27:08.488Z,20.41
2016-08-16T11:28:07.561Z,20.44
2016-08-16T11:29:07.571Z,20.51
2016-08-16T11:30:07.541Z,20.64
2016-08-16T11:31:07.568Z,20.85
2016-08-16T11:32:07.550Z,20.9
2016-08-16T11:33:07.565Z,20.98
2016-08-16T11:34:07.575Z,20.97
2016-08-16T11:35:07.557Z,21.03
2016-08-16T11:36:07.567Z,21.11
2016-08-16T11:37:07.572Z,21.15
2016-08-16T11:38:07.552Z,21.22
2016-08-16T11:39:07.568Z,21.27
2016-08-16T11:40:07.595Z,21.22
2016-08-16T11:41:07.554Z,21.25
2016-08-16T11:42:07.568Z,21.23
2016-08-16T11:43:07.555Z,21.18
2016-08-16T11:44:07.560Z,21.13
2016-08-16T11:45:08.597Z,20.98
2016-08-16T11:46:07.541Z,20.93
2016-08-16T11:47:07.542Z,20.83
2016-08-16T11:48:07.556Z,20.72
2016-08-16T11:49:07.556Z,20.63
2016-08-16T11:50:07.567Z,20.38
2016-08-16T11:51:07.587Z,20.37
2016-08-16T11:52:07.556Z,20.3
2016-08-16T11:53:07.545Z,20.22
2016-08-16T11:54:07.549Z,20.15
2016-08-16T11:55:07.563Z,20.18
2016-08-16T11:56:07.641Z,20.02
2016-08-16T11:57:07.559Z,20.01
2016-08-16T11:58:07.535Z,20.01
2016-08-16T11:59:07.544Z,19.98
2016-08-16T12:00:07.538Z,19.95
2016-08-16T12:01:07.553Z,19.97
2016-08-16T12:02:07.560Z,19.85
2016-08-16T12:03:07.552Z,19.82
2016-08-16T12:04:07.540Z,19.93
2016-08-16T12:05:07.541Z,19.93
2016-08-16T12:06:07.543Z,20.02
2016-08-16T12:07:07.532Z,20.02
2016-08-16T12:08:07.574Z,20.07
2016-08-16T12:09:07.529Z,20.12
2016-08-16T12:10:07.547Z,20.27
2016-08-16T12:11:07.529Z,20.44
2016-08-16T12:12:07.649Z,20.66
2016-08-16T12:13:07.520Z,20.67
2016-08-16T12:14:07.540Z,20.76
2016-08-16T12:15:07.578Z,20.76
2016-08-16T12:16:07.547Z,20.72
2016-08-16T12:17:07.532Z,20.68
2016-08-16T12:18:07.531Z,20.49
2016-08-16T12:19:07.531Z,20.41
2016-08-16T12:20:07.547Z,20.3
2016-08-16T12:21:07.542Z,20.2
2016-08-16T12:22:08.458Z,20
2016-08-16T12:23:08.370Z,19.89
2016-08-16T12:24:07.682Z,19.78
2016-08-16T12:25:07.520Z,19.55
2016-08-16T12:26:07.598Z,19.5
2016-08-16T12:27:07.542Z,19.42
2016-08-16T12:28:07.536Z,19.37
2016-08-16T12:29:07.515Z,19.31
2016-08-16T12:30:07.508Z,19.28
2016-08-16T12:31:07.516Z,19.19
2016-08-16T12:32:07.541Z,19.23
2016-08-16T12:33:07.530Z,19.3
2016-08-16T12:34:07.525Z,19.24
2016-08-16T12:35:07.527Z,19.19
2016-08-16T12:36:07.543Z,19.17
2016-08-16T12:37:07.529Z,19.27
2016-08-16T12:38:07.515Z,19.24
2016-08-16T12:39:07.610Z,19.2
2016-08-16T12:40:07.527Z,19.32
2016-08-16T12:41:07.523Z,19.49
2016-08-16T12:42:07.510Z,19.63
2016-08-16T12:43:07.515Z,19.63
2016-08-16T12:44:07.549Z,19.67
2016-08-16T12:45:07.529Z,19.85
2016-08-16T12:46:07.539Z,19.85
2016-08-16T12:47:07.547Z,19.79
2016-08-16T12:48:07.602Z,19.72
2016-08-16T12:49:07.641Z,19.52
2016-08-16T12:50:07.550Z,19.46
2016-08-16T12:51:07.501Z,19.32
2016-08-16T12:52:07.528Z,19.23
2016-08-16T12:53:07.702Z,19.16
2016-08-16T12:54:07.520Z,19
2016-08-16T12:55:07.497Z,18.93